createdAt,value
2023-01-24T00:01:00.526Z,1.65
2023-01-24T00:04:00.535Z,2.8
2023-01-24T00:07:00.539Z,1.05
2023-01-24T00:10:00.477Z,1.5
2023-01-24T00:13:00.498Z,2.6
2023-01-24T00:16:00.502Z,1.45
2023-01-24T00:19:00.636Z,1.4
2023-01-24T00:22:00.536Z,1.15
2023-01-24T00:25:00.510Z,2
2023-01-24T00:28:00.447Z,2.4
2023-01-24T00:31:00.620Z,1.85
2023-01-24T00:34:00.468Z,2
2023-01-24T00:37:00.575Z,2.15
2023-01-24T00:40:00.523Z,1.8
2023-01-24T00:43:00.488Z,1.9
2023-01-24T00:46:00.637Z,2.6
2023-01-24T00:49:01.072Z,1.65
2023-01-24T00:52:00.894Z,2.15
2023-01-24T00:55:00.535Z,1.05
2023-01-24T00:58:00.507Z,1.25
2023-01-24T01:01:00.558Z,1
2023-01-24T01:04:00.532Z,1.15
2023-01-24T01:07:00.564Z,1.75
2023-01-24T01:10:00.498Z,0.95
2023-01-24T01:13:00.512Z,1.45
2023-01-24T01:16:00.568Z,1.45
2023-01-24T01:19:00.700Z,1.4
2023-01-24T01:22:00.646Z,1.25
2023-01-24T01:25:00.527Z,1.25
2023-01-24T01:28:00.504Z,1.1
2023-01-24T01:31:00.856Z,1.4
2023-01-24T01:34:00.629Z,1.1
2023-01-24T01:37:00.613Z,1.6
2023-01-24T01:40:00.566Z,1.7
2023-01-24T01:43:00.593Z,1.65
2023-01-24T01:46:00.685Z,2.05
2023-01-24T01:49:00.561Z,1.75
2023-01-24T01:52:00.634Z,1.4
2023-01-24T01:55:00.577Z,1.55
2023-01-24T01:58:00.569Z,1.4
2023-01-24T02:01:00.893Z,1.85
2023-01-24T02:04:00.603Z,1.7
2023-01-24T02:07:00.535Z,1.2
2023-01-24T02:10:00.534Z,1.4
2023-01-24T02:13:00.552Z,1.3
2023-01-24T02:16:00.700Z,1.25
2023-01-24T02:19:00.534Z,1.95
2023-01-24T02:22:00.542Z,1.65
2023-01-24T02:25:00.551Z,1.75
2023-01-24T02:28:00.551Z,1.4
2023-01-24T02:31:00.641Z,1.85
2023-01-24T02:34:00.639Z,2.55
2023-01-24T02:37:00.694Z,1.95
2023-01-24T02:40:00.722Z,2
2023-01-24T02:43:00.528Z,2.1
2023-01-24T02:46:00.754Z,1.2
2023-01-24T02:49:00.598Z,1.2
2023-01-24T02:52:00.995Z,1.05
2023-01-24T02:55:00.634Z,1.7
2023-01-24T02:58:00.593Z,1.7
2023-01-24T03:01:00.643Z,2.05
2023-01-24T03:04:00.663Z,1.75
2023-01-24T03:07:00.652Z,2.45
2023-01-24T03:10:01.028Z,1.9
2023-01-24T03:13:00.665Z,2.15
2023-01-24T03:16:00.619Z,2.35
2023-01-24T03:19:00.783Z,2.15
2023-01-24T03:22:00.683Z,1.5
2023-01-24T03:25:00.730Z,1.7
2023-01-24T03:28:00.730Z,2.15
2023-01-24T03:31:00.652Z,1.6
2023-01-24T03:34:00.723Z,1.25
2023-01-24T03:37:00.676Z,1.4
2023-01-24T03:40:00.763Z,1.4
2023-01-24T03:43:00.786Z,2.3
2023-01-24T03:46:00.647Z,1.35
2023-01-24T03:49:00.602Z,1.85
2023-01-24T03:52:00.641Z,0.9
2023-01-24T03:55:00.708Z,1.45
2023-01-24T03:58:00.695Z,1.75
2023-01-24T04:01:00.885Z,1.9
2023-01-24T04:04:00.699Z,1.8
2023-01-24T04:07:00.716Z,1.95
2023-01-24T04:10:00.915Z,1.6
2023-01-24T04:13:00.760Z,1.6
2023-01-24T04:16:00.781Z,1.55
2023-01-24T04:19:00.736Z,2
2023-01-24T04:22:00.628Z,2.15
2023-01-24T04:25:00.686Z,1.55
2023-01-24T04:28:00.682Z,2.15
2023-01-24T04:31:01.041Z,1.9
2023-01-24T04:34:00.742Z,1.4
2023-01-24T04:37:00.710Z,1.4
2023-01-24T04:40:00.681Z,1.95
2023-01-24T04:43:00.677Z,1.45
2023-01-24T04:46:00.695Z,2.45
2023-01-24T04:49:00.741Z,2.5
2023-01-24T04:52:00.713Z,2.2
2023-01-24T04:55:00.717Z,1.85
2023-01-24T04:58:00.735Z,1.55
2023-01-24T05:01:03.661Z,1.7
2023-01-24T05:04:00.778Z,1.45
2023-01-24T05:07:00.637Z,1.8
2023-01-24T05:10:00.763Z,1.65
2023-01-24T05:13:00.807Z,1.15
2023-01-24T05:16:00.737Z,2.55
2023-01-24T05:19:00.750Z,1.55
2023-01-24T05:22:01.069Z,1.4
2023-01-24T05:25:00.750Z,1.75
2023-01-24T05:28:00.732Z,1.7
2023-01-24T05:31:00.716Z,1.35
2023-01-24T05:34:00.749Z,1.85
2023-01-24T05:37:00.806Z,1.75
2023-01-24T05:40:00.838Z,2
2023-01-24T05:43:00.840Z,1.6
2023-01-24T05:46:00.931Z,1.45
2023-01-24T05:49:00.794Z,0.85
2023-01-24T05:52:01.032Z,0.85
2023-01-24T05:55:00.681Z,1.55
2023-01-24T05:58:00.836Z,1.55
2023-01-24T06:01:00.858Z,2.05
2023-01-24T06:04:00.692Z,1.75
2023-01-24T06:07:00.739Z,1.35
2023-01-24T06:10:00.698Z,1.2
2023-01-24T06:13:00.737Z,1
2023-01-24T06:16:00.951Z,1.3
2023-01-24T06:19:00.876Z,1.15
2023-01-24T06:22:00.781Z,1.15
2023-01-24T06:25:00.700Z,1
2023-01-24T06:28:00.801Z,0.95
2023-01-24T06:31:00.869Z,1.3
2023-01-24T06:34:00.899Z,1.75
2023-01-24T06:37:00.810Z,0.9
2023-01-24T06:40:00.856Z,0.75
2023-01-24T06:43:00.911Z,0.95
2023-01-24T06:46:00.902Z,0.95
2023-01-24T06:49:00.833Z,1.3
2023-01-24T06:52:00.832Z,1.15
2023-01-24T06:55:00.922Z,1.1
2023-01-24T06:58:00.893Z,1.45
2023-01-24T07:01:00.777Z,1.3
2023-01-24T07:04:00.927Z,1.2
2023-01-24T07:07:00.788Z,1.2
2023-01-24T07:10:00.788Z,1.35
2023-01-24T07:13:00.769Z,1.7
2023-01-24T07:16:00.948Z,1.35
2023-01-24T07:19:00.733Z,0.8
2023-01-24T07:22:00.858Z,1.4
2023-01-24T07:25:00.941Z,1.1
2023-01-24T07:28:00.962Z,1.85
2023-01-24T07:31:00.939Z,1.1
2023-01-24T07:34:00.808Z,1
2023-01-24T07:37:00.819Z,1.6
2023-01-24T07:40:00.822Z,1.65
2023-01-24T07:43:00.798Z,1.45
2023-01-24T07:46:00.895Z,1.4
2023-01-24T07:49:00.871Z,1.9
2023-01-24T07:52:01.000Z,2
2023-01-24T07:55:00.952Z,1.55
2023-01-24T07:58:00.971Z,1.95
2023-01-24T08:01:01.080Z,1.6
2023-01-24T08:04:00.893Z,1.4
2023-01-24T08:07:01.025Z,2
2023-01-24T08:10:00.961Z,1.65
2023-01-24T08:13:00.913Z,1.75
2023-01-24T08:16:00.929Z,1.2
2023-01-24T08:19:00.883Z,1.4
2023-01-24T08:22:00.977Z,1.45
2023-01-24T08:25:01.031Z,1.05
2023-01-24T08:28:00.942Z,1.65
2023-01-24T08:31:01.013Z,1.15
2023-01-24T08:34:00.934Z,1.3
2023-01-24T08:37:00.967Z,1.7
2023-01-24T08:40:00.970Z,1.4
2023-01-24T08:43:01.028Z,1.2
2023-01-24T08:46:01.168Z,0.9
2023-01-24T08:49:00.920Z,1.05
2023-01-24T08:52:01.316Z,0.75
2023-01-24T08:55:00.923Z,0.45
2023-01-24T08:58:00.900Z,0.8
2023-01-24T09:01:01.028Z,0.85
2023-01-24T09:04:00.945Z,1.05
2023-01-24T09:07:01.012Z,0.9
2023-01-24T09:10:00.945Z,1.05
2023-01-24T09:13:01.049Z,0.95
2023-01-24T09:16:01.014Z,1.25
2023-01-24T09:19:00.875Z,1
2023-01-24T09:22:00.962Z,1.1
2023-01-24T09:25:00.991Z,1.45
2023-01-24T09:28:01.009Z,1.7
2023-01-24T09:31:01.041Z,0.8
2023-01-24T09:34:01.313Z,1.05
2023-01-24T09:37:01.004Z,1.05
2023-01-24T09:40:01.004Z,1.35
2023-01-24T09:43:00.984Z,1.3
2023-01-24T09:46:00.963Z,1.25
2023-01-24T09:49:01.065Z,0.9
2023-01-24T09:52:01.031Z,1.1
2023-01-24T09:55:00.924Z,1.2
2023-01-24T09:58:01.013Z,1.45
2023-01-24T10:01:00.973Z,1.95
2023-01-24T10:04:01.012Z,1.6
2023-01-24T10:07:01.021Z,1.1
2023-01-24T10:10:00.987Z,1.15
2023-01-24T10:13:01.034Z,0.85
2023-01-24T10:16:01.011Z,1
2023-01-24T10:19:00.943Z,1
2023-01-24T10:22:01.044Z,1.35
2023-01-24T10:25:01.048Z,1.55
2023-01-24T10:28:01.030Z,1.55
2023-01-24T10:31:01.150Z,1.8
2023-01-24T10:34:01.076Z,1.3
2023-01-24T10:37:00.914Z,0.8
2023-01-24T10:40:01.028Z,1.1
2023-01-24T10:43:00.992Z,1.3
2023-01-24T10:46:01.191Z,0.65
2023-01-24T10:49:00.932Z,0.65
2023-01-24T10:52:00.966Z,1
2023-01-24T10:55:01.053Z,1.45
2023-01-24T10:58:01.046Z,0.85
2023-01-24T11:01:01.159Z,1.25
2023-01-24T11:04:01.043Z,0.85
2023-01-24T11:07:00.982Z,0.9
2023-01-24T11:10:01.068Z,0.8
2023-01-24T11:13:01.023Z,1
2023-01-24T11:16:00.994Z,0.85
2023-01-24T11:19:01.074Z,1
2023-01-24T11:22:00.972Z,1
2023-01-24T11:25:00.992Z,0.95
2023-01-24T11:28:01.174Z,0.85
2023-01-24T11:31:01.241Z,0.9
2023-01-24T11:34:01.079Z,0.6
2023-01-24T11:37:01.008Z,1
2023-01-24T11:40:01.106Z,1
2023-01-24T11:43:01.156Z,0.9
2023-01-24T11:46:01.057Z,0.9
2023-01-24T11:49:01.052Z,1.25
2023-01-24T11:52:01.103Z,1.15
2023-01-24T11:55:01.185Z,0.95
2023-01-24T11:58:01.118Z,1.45
2023-01-24T12:01:01.117Z,1.1
2023-01-24T12:04:01.350Z,0.65
2023-01-24T12:07:01.088Z,1.35
2023-01-24T12:10:01.181Z,0.9
2023-01-24T12:13:01.064Z,0.9
2023-01-24T12:16:01.211Z,1
2023-01-24T12:19:01.198Z,0.75
2023-01-24T12:22:01.202Z,0.85
2023-01-24T12:25:01.192Z,0.5
2023-01-24T12:28:01.100Z,0.45
2023-01-24T12:31:01.324Z,0.6
2023-01-24T12:34:03.517Z,0.8
2023-01-24T12:37:01.100Z,0.55
2023-01-24T12:40:01.145Z,0.6
2023-01-24T12:43:01.114Z,1.05
2023-01-24T12:46:01.216Z,0.9
2023-01-24T12:49:14.434Z,0.75
2023-01-24T12:52:01.212Z,0.7
2023-01-24T12:55:01.228Z,1
2023-01-24T12:58:01.171Z,0.7
2023-01-24T13:01:01.550Z,1.3
2023-01-24T13:04:01.073Z,0.95
2023-01-24T13:07:01.199Z,0.9
2023-01-24T13:10:01.267Z,1.25
2023-01-24T13:13:01.234Z,0.9
2023-01-24T13:16:01.184Z,1.05
2023-01-24T13:19:01.088Z,0.4
2023-01-24T13:22:01.124Z,0.75
2023-01-24T13:25:01.225Z,0.35
2023-01-24T13:28:01.108Z,0.25
2023-01-24T13:31:01.290Z,1.1
2023-01-24T13:34:01.240Z,0.45
2023-01-24T13:37:01.181Z,0.5
2023-01-24T13:40:01.432Z,0.5
2023-01-24T13:43:01.234Z,0.7
2023-01-24T13:46:03.609Z,1.4
2023-01-24T13:49:01.241Z,1.1
2023-01-24T13:52:01.083Z,1
2023-01-24T13:55:01.233Z,1.05
2023-01-24T13:58:01.211Z,1.2
2023-01-24T14:01:01.397Z,1.15
2023-01-24T14:04:01.282Z,1.1
2023-01-24T14:07:01.256Z,0.85
2023-01-24T14:10:01.201Z,1.35
2023-01-24T14:13:03.719Z,1.35
2023-01-24T14:16:01.175Z,0.65
2023-01-24T14:19:01.231Z,0.45
2023-01-24T14:22:01.149Z,0.85
2023-01-24T14:25:01.201Z,1.15
2023-01-24T14:28:01.182Z,1.2
2023-01-24T14:31:01.297Z,0.75
2023-01-24T14:34:01.182Z,0.95
2023-01-24T14:37:01.160Z,0.85
2023-01-24T14:40:01.272Z,0.75
2023-01-24T14:43:01.306Z,1.15
2023-01-24T14:46:01.333Z,1.7
2023-01-24T14:49:01.203Z,1.35
2023-01-24T14:52:17.028Z,1.3
2023-01-24T14:55:01.193Z,1.1
2023-01-24T14:58:01.163Z,1.8
2023-01-24T15:01:01.334Z,1.45
2023-01-24T15:04:01.292Z,1.4
2023-01-24T15:07:01.242Z,0.85
2023-01-24T15:10:01.303Z,0.7
2023-01-24T15:13:01.232Z,0.6
2023-01-24T15:16:01.417Z,0.6
2023-01-24T15:19:01.279Z,0.55
2023-01-24T15:22:01.267Z,1.25
2023-01-24T15:25:01.220Z,1.15
2023-01-24T15:28:01.601Z,1.8
2023-01-24T15:31:01.491Z,0.65
2023-01-24T15:34:01.279Z,1.2
2023-01-24T15:37:01.320Z,0.75
2023-01-24T15:40:01.264Z,1.15
2023-01-24T15:43:01.322Z,0.85
2023-01-24T15:46:01.376Z,1.15
2023-01-24T15:49:01.225Z,0.95
2023-01-24T15:52:01.297Z,0.7
2023-01-24T15:55:02.120Z,0.65
2023-01-24T15:58:01.304Z,0.9
2023-01-24T16:01:01.376Z,0.65
2023-01-24T16:04:01.283Z,0.5
2023-01-24T16:07:01.252Z,0.2
2023-01-24T16:10:02.335Z,0.35
2023-01-24T16:13:01.322Z,0.5
2023-01-24T16:16:01.416Z,0.45
2023-01-24T16:19:01.210Z,0.9
2023-01-24T16:22:01.365Z,1.15
2023-01-24T16:25:01.416Z,1.25
2023-01-24T16:28:01.339Z,0.95
2023-01-24T16:31:01.491Z,1.3
2023-01-24T16:34:01.423Z,1.05
2023-01-24T16:37:01.560Z,0.4
2023-01-24T16:40:02.477Z,0.65
2023-01-24T16:43:01.291Z,0.75
2023-01-24T16:46:01.232Z,0.4
2023-01-24T16:49:01.493Z,0.2
2023-01-24T16:52:18.320Z,0.7
2023-01-24T16:55:01.396Z,0.55
2023-01-24T16:58:01.309Z,0.2
2023-01-24T17:01:01.440Z,0.15
2023-01-24T17:04:04.448Z,0.6
2023-01-24T17:07:04.140Z,0.65
2023-01-24T17:10:02.187Z,0.55
2023-01-24T17:13:01.367Z,0.45
2023-01-24T17:16:01.473Z,0.35
2023-01-24T17:19:01.384Z,0.65
2023-01-24T17:22:01.512Z,0.9
2023-01-24T17:25:01.461Z,0.7
2023-01-24T17:28:01.524Z,0.8
2023-01-24T17:31:02.543Z,0.6
2023-01-24T17:34:01.376Z,0.6
2023-01-24T17:37:01.389Z,0.45
2023-01-24T17:40:01.523Z,0.55
2023-01-24T17:43:01.373Z,0.65
2023-01-24T17:46:01.655Z,0.7
2023-01-24T17:49:01.431Z,0.85
2023-01-24T17:52:01.450Z,0.6
2023-01-24T17:55:01.449Z,0.6
2023-01-24T17:58:02.165Z,0.75
2023-01-24T18:01:01.562Z,0.4
2023-01-24T18:04:02.726Z,0.4
2023-01-24T18:07:01.375Z,0.7
2023-01-24T18:10:03.499Z,0.8
2023-01-24T18:13:01.399Z,0.5
2023-01-24T18:16:01.525Z,0.5
2023-01-24T18:19:01.505Z,0.25
2023-01-24T18:22:01.439Z,0.4
2023-01-24T18:25:01.549Z,0.55
2023-01-24T18:28:01.446Z,0.6
2023-01-24T18:31:04.209Z,0.5
2023-01-24T18:34:01.382Z,0.25
2023-01-24T18:37:02.660Z,0.7
2023-01-24T18:40:01.646Z,0.5
2023-01-24T18:43:01.483Z,0.55
2023-01-24T18:46:01.550Z,0.8
2023-01-24T18:49:01.509Z,0.5
2023-01-24T18:52:04.632Z,0.85
2023-01-24T18:55:01.443Z,1.05
2023-01-24T18:58:01.424Z,1.05
2023-01-24T19:01:01.450Z,0.45
2023-01-24T19:04:01.428Z,0.65
2023-01-24T19:07:01.416Z,1
2023-01-24T19:10:01.431Z,0.65
2023-01-24T19:13:01.408Z,0.6
2023-01-24T19:16:01.946Z,0.8
2023-01-24T19:19:01.494Z,1
2023-01-24T19:22:01.471Z,0.5
2023-01-24T19:25:01.433Z,0.9
2023-01-24T19:28:01.499Z,1.1
2023-01-24T19:31:01.877Z,0.85
2023-01-24T19:34:01.580Z,0.5
2023-01-24T19:37:01.452Z,0.45
2023-01-24T19:40:01.506Z,0.85
2023-01-24T19:43:01.378Z,0.35
2023-01-24T19:46:11.250Z,0.65
2023-01-24T19:49:01.423Z,0.45
2023-01-24T19:52:01.564Z,0.65
2023-01-24T19:55:01.613Z,0.45
2023-01-24T19:58:01.482Z,0.55
2023-01-24T20:01:01.583Z,0.95
2023-01-24T20:04:22.495Z,0.8
2023-01-24T20:07:02.721Z,0.85
2023-01-24T20:10:01.607Z,0.55
2023-01-24T20:13:01.613Z,0.65
2023-01-24T20:16:01.576Z,0.7
2023-01-24T20:19:04.717Z,0.3
2023-01-24T20:22:03.279Z,0.75
2023-01-24T20:25:14.060Z,0.85
2023-01-24T20:28:01.620Z,0.5
2023-01-24T20:31:02.982Z,0.65
2023-01-24T20:34:01.547Z,0.9
2023-01-24T20:37:01.435Z,0.7
2023-01-24T20:40:01.552Z,0.55
2023-01-24T20:43:15.782Z,1
2023-01-24T20:49:02.630Z,0.75
2023-01-24T20:52:01.436Z,0.75
2023-01-24T20:55:01.578Z,1
2023-01-24T20:58:01.583Z,0.95
2023-01-24T21:01:01.635Z,0.85
2023-01-24T21:04:01.586Z,0.8
2023-01-24T21:07:01.479Z,0.95
2023-01-24T21:10:01.608Z,0.5
2023-01-24T21:13:01.477Z,0.6
2023-01-24T21:16:03.113Z,0.85
2023-01-24T21:19:01.610Z,0.65
2023-01-24T21:22:01.481Z,1.25
2023-01-24T21:25:01.518Z,0.8
2023-01-24T21:28:01.488Z,0.65
2023-01-24T21:31:01.884Z,0.6
2023-01-24T21:34:04.193Z,0.8
2023-01-24T21:37:01.531Z,0.4
2023-01-24T21:40:01.607Z,0.6
2023-01-24T21:43:01.613Z,1.1
2023-01-24T21:46:01.710Z,0.8
2023-01-24T21:49:01.574Z,0.7
2023-01-24T21:52:01.559Z,0.65
2023-01-24T21:55:01.656Z,0.75
2023-01-24T21:58:01.645Z,0.85
2023-01-24T22:01:01.645Z,0.6
2023-01-24T22:04:01.495Z,0.55
2023-01-24T22:07:01.710Z,1.2
2023-01-24T22:10:01.544Z,0.7
2023-01-24T22:13:03.972Z,0.45
2023-01-24T22:16:01.742Z,0.8
2023-01-24T22:19:01.558Z,0.85
2023-01-24T22:22:01.576Z,0.8
2023-01-24T22:25:01.626Z,0.75
2023-01-24T22:28:01.513Z,1.15
2023-01-24T22:31:01.678Z,1
2023-01-24T22:34:01.544Z,0.9
2023-01-24T22:37:01.774Z,0.95
2023-01-24T22:40:01.721Z,1.1
2023-01-24T22:43:01.654Z,1.3
2023-01-24T22:46:01.721Z,1.15
2023-01-24T22:49:01.719Z,1
2023-01-24T22:52:01.547Z,1.25
2023-01-24T22:55:01.623Z,1.35
2023-01-24T22:58:01.709Z,0.95
2023-01-24T23:01:01.757Z,1.4
2023-01-24T23:04:01.691Z,1.15
2023-01-24T23:07:01.713Z,1
2023-01-24T23:10:01.774Z,0.55
2023-01-24T23:13:01.591Z,0.95
2023-01-24T23:16:01.851Z,1.5
2023-01-24T23:19:01.653Z,1.05
2023-01-24T23:22:01.633Z,0.8
2023-01-24T23:25:01.845Z,1
2023-01-24T23:28:01.657Z,0.75
2023-01-24T23:31:01.630Z,0.75
2023-01-24T23:34:03.223Z,0.9
2023-01-24T23:37:01.868Z,1
2023-01-24T23:40:01.683Z,0.85
2023-01-24T23:43:01.965Z,1.15
2023-01-24T23:46:01.883Z,1.15
2023-01-24T23:49:01.589Z,0.7
2023-01-24T23:52:01.676Z,0.9
2023-01-24T23:55:01.701Z,0.9
2023-01-24T23:58:01.750Z,0.95
